Terminal Aerodrome Forecast
Issued by NWS Omaha/Valley, NE

Home | Current Version | Previous Version | Graphics & Text | Print | Product List | Glossary On
Versions: 1 2 3 4 5 6 7 8 9 10 11 12 13 14 15 16 17
000
FTUS43 KOAX 231519 AAA
TAFOFK
TAF AMD
KOFK 231519Z 2315/2412 33014G22KT P6SM VCSH SCT025 BKN040
     FM231700 33018G27KT P6SM VCSH BKN035
      TEMPO 2317/2320 5SM -SHRA OVC025
     FM240000 34011KT P6SM BKN025=

USA.gov is the U.S. government's official web portal to all federal, state and local government web resources and services.